Time;durP1;ratioP1;P1;durP2;ratioP2;P2;SDS_P1;SDS_P2;PMS_P1;PMS_P2;Temp;Humidity;BMP_temperature;BMP_pressure;BME280_temperature;BME280_humidity;BME280_pressure;Samples;Min_cycle;Max_cycle;Signal;HPM_P1;HPM_P2
2021/10/09 00:01:24;;;;;;;5.03;3.53;;;19.30;99.90;;;;;;5011072;28;20025;-70
2021/10/09 00:03:50;;;;;;;5.93;3.95;;;19.30;99.90;;;;;;5010801;28;20018;-70
2021/10/09 00:06:16;;;;;;;4.30;3.67;;;19.30;99.90;;;;;;5010840;28;20359;-70
2021/10/09 00:08:42;;;;;;;3.65;3.20;;;19.30;99.90;;;;;;5010679;28;20084;-67
2021/10/09 00:11:14;;;;;;;5.05;4.20;;;19.30;99.90;;;;;;5014068;28;20079;-72
2021/10/09 00:13:40;;;;;;;7.13;3.67;;;19.30;99.90;;;;;;5014660;28;20049;-69
2021/10/09 00:16:06;;;;;;;4.35;3.42;;;19.30;99.90;;;;;;5014204;28;20018;-68
2021/10/09 00:18:31;;;;;;;6.32;3.90;;;19.30;99.90;;;;;;5014329;28;20030;-70
2021/10/09 00:20:57;;;;;;;5.60;3.47;;;19.30;99.90;;;;;;5013898;28;20156;-66
2021/10/09 00:23:23;;;;;;;5.45;3.50;;;19.30;99.90;;;;;;5014353;28;20057;-67
2021/10/09 00:25:48;;;;;;;4.45;3.80;;;19.30;99.90;;;;;;5014083;28;20030;-68
2021/10/09 00:28:14;;;;;;;4.78;3.80;;;19.30;99.90;;;;;;5014142;28;20481;-68
2021/10/09 00:30:40;;;;;;;4.80;4.28;;;19.30;99.90;;;;;;5014450;28;20057;-68
2021/10/09 00:33:05;;;;;;;4.45;3.90;;;19.30;99.90;;;;;;5013768;28;20466;-68
2021/10/09 00:35:31;;;;;;;4.10;3.55;;;19.30;99.90;;;;;;5014123;28;20034;-65
2021/10/09 00:37:57;;;;;;;4.65;4.18;;;19.20;99.90;;;;;;5013804;28;20026;-65
2021/10/09 00:40:23;;;;;;;4.13;3.60;;;19.30;99.90;;;;;;5013843;28;20121;-65
2021/10/09 00:42:48;;;;;;;4.60;4.07;;;19.30;99.90;;;;;;5013615;28;20022;-65
2021/10/09 00:45:14;;;;;;;4.53;3.55;;;19.30;99.90;;;;;;5013900;28;20069;-68
2021/10/09 00:47:39;;;;;;;4.55;3.83;;;19.20;99.90;;;;;;5014092;28;20018;-68
2021/10/09 00:50:06;;;;;;;4.65;3.95;;;19.20;99.90;;;;;;5013510;28;20061;-68
2021/10/09 00:52:34;;;;;;;5.20;3.83;;;19.20;99.90;;;;;;5013989;28;20850;-67
2021/10/09 00:55:03;;;;;;;4.47;3.95;;;19.20;99.90;;;;;;5013231;28;20084;-68
2021/10/09 00:57:30;;;;;;;4.93;4.05;;;19.20;99.90;;;;;;5013746;28;20025;-68
2021/10/09 01:00:00;;;;;;;5.53;3.78;;;19.20;99.90;;;;;;5013224;28;20474;-70
2021/10/09 01:02:26;;;;;;;4.32;3.58;;;19.20;99.90;;;;;;4995951;28;20478;-66
2021/10/09 01:04:52;;;;;;;4.32;3.58;;;19.20;99.90;;;;;;5013419;28;20033;-67
2021/10/09 01:07:18;;;;;;;4.20;3.80;;;19.20;99.90;;;;;;5013464;28;20033;-67
2021/10/09 01:09:46;;;;;;;4.72;3.83;;;19.20;99.90;;;;;;5013196;28;20497;-70
2021/10/09 01:12:13;;;;;;;4.18;3.65;;;19.20;99.90;;;;;;5013636;28;20041;-67
2021/10/09 01:14:40;;;;;;;4.18;3.75;;;19.20;99.90;;;;;;5013337;28;20486;-72
2021/10/09 01:17:08;;;;;;;5.40;4.05;;;19.20;99.90;;;;;;5012933;28;20025;-71
2021/10/09 01:19:33;;;;;;;5.28;4.40;;;19.20;99.90;;;;;;5013124;28;20030;-67
2021/10/09 01:21:59;;;;;;;5.40;4.28;;;19.10;99.90;;;;;;4994675;28;20028;-69
2021/10/09 01:24:25;;;;;;;4.68;3.70;;;19.10;99.90;;;;;;5013138;28;20030;-71
2021/10/09 01:26:50;;;;;;;5.15;4.13;;;19.10;99.90;;;;;;5012841;28;20084;-69
2021/10/09 01:29:16;;;;;;;5.22;4.15;;;19.20;99.90;;;;;;4995509;28;20025;-66
2021/10/09 01:31:42;;;;;;;5.05;3.95;;;19.10;99.90;;;;;;5012709;28;20021;-71
2021/10/09 01:34:08;;;;;;;4.90;3.85;;;19.10;99.90;;;;;;5013132;28;20128;-72
2021/10/09 01:36:37;;;;;;;4.70;3.97;;;19.10;99.90;;;;;;5013014;28;20104;-75
2021/10/09 01:39:05;;;;;;;6.30;4.30;;;19.10;99.90;;;;;;5012624;28;20076;-68
2021/10/09 01:41:37;;;;;;;4.60;4.18;;;19.10;99.90;;;;;;5012801;28;20029;-69
2021/10/09 01:44:03;;;;;;;4.53;4.07;;;19.10;99.90;;;;;;5012544;28;20065;-73
2021/10/09 01:46:28;;;;;;;4.50;3.97;;;19.10;99.90;;;;;;5012728;28;20052;-74
2021/10/09 01:48:54;;;;;;;5.30;4.10;;;19.10;99.90;;;;;;5012457;28;20481;-70
2021/10/09 01:51:19;;;;;;;5.40;4.20;;;19.10;99.90;;;;;;5012706;28;20029;-67
2021/10/09 01:53:45;;;;;;;4.97;4.05;;;19.10;99.90;;;;;;5012344;28;20117;-72
2021/10/09 01:56:11;;;;;;;5.88;4.50;;;19.10;99.90;;;;;;5012790;28;20022;-72
2021/10/09 01:58:37;;;;;;;5.40;4.03;;;19.10;99.90;;;;;;5012766;28;20036;-69
2021/10/09 02:01:03;;;;;;;5.07;4.00;;;19.10;99.90;;;;;;5012245;28;20084;-68
2021/10/09 02:03:29;;;;;;;5.20;4.15;;;19.00;99.90;;;;;;5012390;28;20021;-68
2021/10/09 02:05:54;;;;;;;4.63;3.95;;;19.10;99.90;;;;;;4994339;28;20029;-69
2021/10/09 02:08:20;;;;;;;5.32;4.38;;;19.00;99.90;;;;;;5012189;28;20095;-70
2021/10/09 02:26:47;;;;;;;;;;;19.00;99.90;;;;;;5012212;28;20053;-65
2021/10/09 02:29:13;;;;;;;6.18;4.43;;;19.00;99.90;;;;;;5012111;28;20358;-66
2021/10/09 02:31:39;;;;;;;4.93;4.10;;;19.00;99.90;;;;;;5012192;28;20022;-68
2021/10/09 02:34:04;;;;;;;5.45;4.10;;;18.90;99.90;;;;;;5010697;28;20061;-68
2021/10/09 02:36:30;;;;;;;6.15;4.40;;;19.00;99.90;;;;;;5011847;28;20030;-67
2021/10/09 02:38:56;;;;;;;5.30;3.95;;;18.90;99.90;;;;;;5011665;28;20022;-66
2021/10/09 02:41:21;;;;;;;4.82;4.10;;;18.90;99.90;;;;;;5011907;28;20482;-66
2021/10/09 02:43:47;;;;;;;4.55;4.03;;;18.90;99.90;;;;;;5011596;28;20101;-67
2021/10/09 02:46:12;;;;;;;4.80;4.07;;;18.90;99.90;;;;;;5011694;28;20108;-70
2021/10/09 02:48:39;;;;;;;4.47;3.80;;;18.90;99.90;;;;;;5011932;28;20022;-70
2021/10/09 02:51:05;;;;;;;6.03;4.30;;;18.90;99.90;;;;;;5011321;28;20085;-68
2021/10/09 02:53:31;;;;;;;5.50;4.70;;;18.90;99.90;;;;;;5011577;28;20038;-70
2021/10/09 02:55:56;;;;;;;5.22;4.00;;;18.90;99.90;;;;;;4993798;28;20045;-68
2021/10/09 02:58:22;;;;;;;4.28;3.70;;;18.90;99.90;;;;;;5011700;28;20488;-66
2021/10/09 03:00:48;;;;;;;5.20;3.50;;;18.80;99.90;;;;;;5011280;28;20121;-66
2021/10/09 03:03:13;;;;;;;7.13;4.28;;;18.80;99.90;;;;;;5011402;28;20450;-70
2021/10/09 03:05:39;;;;;;;3.92;3.53;;;18.80;99.90;;;;;;5011994;28;20032;-67
2021/10/09 03:08:05;;;;;;;6.63;3.60;;;18.80;99.90;;;;;;4993489;28;20393;-68
2021/10/09 03:10:32;;;;;;;4.38;3.42;;;18.80;99.90;;;;;;5011686;28;20052;-71
2021/10/09 03:12:58;;;;;;;6.40;4.25;;;18.80;99.90;;;;;;5011222;28;20034;-70
2021/10/09 03:15:23;;;;;;;4.60;3.90;;;18.80;99.90;;;;;;5011552;28;20393;-69
2021/10/09 03:17:49;;;;;;;4.45;3.80;;;18.80;99.90;;;;;;5011101;28;20588;-66
2021/10/09 03:20:15;;;;;;;5.47;4.60;;;18.80;99.90;;;;;;5011607;28;20081;-65
2021/10/09 03:22:41;;;;;;;7.30;3.72;;;18.80;99.90;;;;;;5011792;28;20026;-69
2021/10/09 03:25:07;;;;;;;5.15;4.25;;;18.80;99.90;;;;;;5010355;28;20037;-69
2021/10/09 03:27:33;;;;;;;4.65;3.97;;;18.80;99.90;;;;;;5010882;28;20500;-73
2021/10/09 03:29:59;;;;;;;4.50;4.00;;;18.80;99.90;;;;;;5011233;28;20112;-68
2021/10/09 03:32:25;;;;;;;4.38;3.80;;;18.80;99.90;;;;;;5011016;28;20021;-66
2021/10/09 03:34:50;;;;;;;4.10;3.70;;;18.70;99.90;;;;;;5011332;28;20066;-68
2021/10/09 03:37:16;;;;;;;4.68;3.92;;;18.70;99.90;;;;;;5010001;28;20026;-70
2021/10/09 03:39:45;;;;;;;5.15;3.97;;;18.70;99.90;;;;;;5011256;28;20022;-71
2021/10/09 03:42:19;;;;;;;4.47;4.05;;;18.70;99.90;;;;;;5011691;28;20034;-69
2021/10/09 03:44:58;;;;;;;4.03;3.63;;;18.70;99.90;;;;;;5012117;28;20026;-70
2021/10/09 03:47:41;;;;;;;4.90;4.00;;;18.70;99.90;;;;;;5014554;28;20171;-67
2021/10/09 03:52:43;;;;;;;5.28;3.78;;;18.70;99.90;;;;;;5014553;28;20553;-68
2021/10/09 03:55:14;;;;;;;4.30;3.90;;;18.70;99.90;;;;;;5014987;28;20037;-64
2021/10/09 03:57:40;;;;;;;4.43;4.03;;;18.60;99.90;;;;;;5014641;28;20026;-71
2021/10/09 04:00:08;;;;;;;4.68;4.18;;;18.60;99.90;;;;;;5014664;28;20045;-66
2021/10/09 04:02:33;;;;;;;7.00;4.03;;;18.60;99.90;;;;;;5014146;28;20470;-65
2021/10/09 04:04:59;;;;;;;4.80;3.83;;;18.60;99.90;;;;;;5014595;28;20036;-67
2021/10/09 04:07:25;;;;;;;4.75;4.00;;;18.60;99.90;;;;;;5014108;28;20084;-64
2021/10/09 04:09:51;;;;;;;4.68;3.38;;;18.60;99.90;;;;;;5014445;28;20040;-68
2021/10/09 04:12:16;;;;;;;6.18;4.05;;;18.60;99.90;;;;;;5014416;28;20057;-68
2021/10/09 04:14:42;;;;;;;4.88;3.83;;;18.60;99.90;;;;;;5014316;28;20057;-65
2021/10/09 04:17:08;;;;;;;5.65;3.83;;;18.60;99.90;;;;;;5014427;28;20446;-71
2021/10/09 04:19:34;;;;;;;5.63;4.13;;;18.60;99.90;;;;;;5014006;28;20385;-72
2021/10/09 04:21:59;;;;;;;6.95;4.00;;;18.60;99.90;;;;;;5014255;28;20486;-65
2021/10/09 04:24:25;;;;;;;4.78;4.28;;;18.60;99.90;;;;;;5014007;28;20112;-71
2021/10/09 04:26:51;;;;;;;4.65;4.13;;;18.60;99.90;;;;;;5014114;28;20099;-70
2021/10/09 04:29:17;;;;;;;4.47;3.80;;;18.50;99.90;;;;;;5014181;28;20026;-71
2021/10/09 04:31:43;;;;;;;5.35;3.88;;;18.50;99.90;;;;;;5014222;28;20025;-70
2021/10/09 04:34:09;;;;;;;4.68;4.15;;;18.50;99.90;;;;;;5014301;28;20040;-71
2021/10/09 04:36:34;;;;;;;6.07;4.03;;;18.50;99.90;;;;;;5013736;28;20026;-72
2021/10/09 04:39:00;;;;;;;4.03;3.63;;;18.50;99.90;;;;;;5013956;28;20037;-72
2021/10/09 04:41:26;;;;;;;4.20;3.40;;;18.50;99.90;;;;;;5013605;28;20449;-70
2021/10/09 04:43:52;;;;;;;5.55;3.95;;;18.50;99.90;;;;;;5013837;28;20026;-72
2021/10/09 04:46:17;;;;;;;4.65;3.67;;;18.50;99.90;;;;;;5013839;28;20022;-71
2021/10/09 04:48:43;;;;;;;4.45;3.70;;;18.50;99.90;;;;;;5013675;28;20030;-73
2021/10/09 04:51:09;;;;;;;3.75;3.28;;;18.50;99.90;;;;;;5013878;28;20018;-67
2021/10/09 04:53:34;;;;;;;4.63;3.53;;;18.50;99.90;;;;;;5013294;28;20081;-69
2021/10/09 04:56:00;;;;;;;4.30;3.38;;;18.50;99.90;;;;;;5013031;28;20041;-68
2021/10/09 04:58:25;;;;;;;4.20;3.80;;;18.50;99.90;;;;;;5012986;28;20033;-67
2021/10/09 05:00:51;;;;;;;4.10;3.70;;;18.50;99.90;;;;;;5013521;28;20033;-66
2021/10/09 05:03:18;;;;;;;8.18;3.65;;;18.40;99.90;;;;;;5012109;28;20029;-71
2021/10/09 05:05:44;;;;;;;4.53;3.47;;;18.40;99.90;;;;;;5013719;28;20026;-69
2021/10/09 05:08:10;;;;;;;4.47;3.63;;;18.40;99.90;;;;;;5013491;28;20030;-65
2021/10/09 05:10:36;;;;;;;4.97;3.42;;;18.40;99.90;;;;;;5013040;28;20041;-65
2021/10/09 05:13:02;;;;;;;3.80;3.40;;;18.40;99.90;;;;;;5013276;28;20022;-69
2021/10/09 05:15:27;;;;;;;4.03;3.50;;;18.40;99.90;;;;;;5013039;28;20041;-68
2021/10/09 05:17:53;;;;;;;4.18;3.40;;;18.40;99.90;;;;;;5012100;28;20022;-66
2021/10/09 05:20:19;;;;;;;3.83;3.40;;;18.40;99.90;;;;;;5012982;28;20034;-64
2021/10/09 05:22:45;;;;;;;4.60;3.88;;;18.40;99.90;;;;;;5013333;28;20057;-67
2021/10/09 05:25:11;;;;;;;3.75;3.35;;;18.40;99.90;;;;;;5013210;28;20049;-66
2021/10/09 05:27:38;;;;;;;4.35;3.40;;;18.40;99.90;;;;;;5012785;28;20030;-64
2021/10/09 05:30:10;;;;;;;4.80;3.85;;;18.40;99.90;;;;;;5011632;28;20026;-65
2021/10/09 05:32:46;;;;;;;5.72;3.60;;;18.40;99.90;;;;;;4995042;28;20026;-64
2021/10/09 05:35:12;;;;;;;5.03;3.58;;;18.40;99.90;;;;;;5013333;28;20056;-65
2021/10/09 05:37:38;;;;;;;3.75;3.22;;;18.30;99.90;;;;;;5012408;28;20374;-67
2021/10/09 05:40:04;;;;;;;3.30;3.00;;;18.30;99.90;;;;;;5012861;28;20037;-68
2021/10/09 05:42:29;;;;;;;3.78;3.30;;;18.30;99.90;;;;;;5012470;28;20029;-65
2021/10/09 05:44:56;;;;;;;3.78;3.38;;;18.30;99.90;;;;;;5012711;28;20034;-64
2021/10/09 05:47:22;;;;;;;4.03;3.50;;;18.30;99.90;;;;;;5012388;28;20065;-68
2021/10/09 05:49:52;;;;;;;3.88;3.20;;;18.40;99.90;;;;;;5012668;28;20054;-67
2021/10/09 05:52:25;;;;;;;3.60;3.25;;;18.40;99.90;;;;;;5012500;28;20088;-66
2021/10/09 05:57:37;;;;;;;4.10;3.20;;;18.40;99.90;;;;;;5012517;28;20018;-67
2021/10/09 06:59:41;;;;;;;6.50;2.42;;;19.20;99.90;;;;;;5011486;28;20060;-64
2021/10/09 07:02:06;;;;;;;2.28;2.08;;;19.20;99.90;;;;;;5011777;28;20431;-66
2021/10/09 07:04:32;;;;;;;2.60;2.40;;;19.30;99.90;;;;;;5011345;28;20030;-68
2021/10/09 07:07:01;;;;;;;2.72;2.28;;;19.30;99.90;;;;;;5011437;28;20033;-64
2021/10/09 07:09:27;;;;;;;3.45;2.30;;;19.40;99.90;;;;;;5011553;28;20037;-65
2021/10/09 07:11:52;;;;;;;2.80;2.00;;;19.40;99.90;;;;;;5011708;28;20022;-66
2021/10/09 07:14:18;;;;;;;3.42;2.20;;;19.40;99.90;;;;;;5011921;28;20038;-64
2021/10/09 07:16:43;;;;;;;5.38;2.25;;;19.50;99.90;;;;;;5011816;28;20026;-66
2021/10/09 07:19:09;;;;;;;2.58;2.10;;;19.50;99.90;;;;;;5011732;28;20037;-65
2021/10/09 07:21:35;;;;;;;2.72;2.00;;;19.50;99.90;;;;;;5015267;28;20026;-67
2021/10/09 07:24:00;;;;;;;2.40;2.20;;;19.60;99.90;;;;;;5015501;28;20092;-65
2021/10/09 07:26:26;;;;;;;2.88;2.10;;;19.60;99.90;;;;;;5014768;28;20088;-67
2021/10/09 07:28:51;;;;;;;2.88;2.28;;;19.60;99.90;;;;;;5015300;28;20021;-72
2021/10/09 07:31:17;;;;;;;4.20;2.17;;;19.50;99.90;;;;;;4997948;28;20048;-70
2021/10/09 07:33:43;;;;;;;2.72;2.03;;;19.60;99.90;;;;;;4997595;28;20100;-71
2021/10/09 07:36:08;;;;;;;7.55;1.75;;;19.50;99.90;;;;;;4997846;28;20044;-67
2021/10/09 07:38:34;;;;;;;2.25;1.83;;;19.50;99.90;;;;;;5015527;28;20466;-70
2021/10/09 07:41:00;;;;;;;2.85;2.00;;;19.50;99.90;;;;;;5015601;28;20391;-70
2021/10/09 07:43:26;;;;;;;2.20;1.90;;;19.50;99.90;;;;;;5014145;28;20030;-74
2021/10/09 07:45:51;;;;;;;4.13;2.10;;;19.50;99.90;;;;;;5012813;28;20483;-71
2021/10/09 07:48:17;;;;;;;2.50;1.80;;;19.50;99.90;;;;;;5005470;28;20101;-72
2021/10/09 07:50:43;;;;;;;2.47;2.13;;;19.50;99.90;;;;;;5008283;28;20030;-73
2021/10/09 07:53:09;;;;;;;2.20;1.88;;;19.60;99.90;;;;;;5014862;28;20036;-72
2021/10/09 07:55:35;;;;;;;3.80;2.42;;;19.60;99.90;;;;;;5014783;28;20041;-68
2021/10/09 07:58:00;;;;;;;2.30;2.00;;;19.60;99.90;;;;;;5015025;28;20026;-72
2021/10/09 08:00:26;;;;;;;2.65;2.15;;;19.60;99.90;;;;;;5015896;28;20030;-72
2021/10/09 08:02:52;;;;;;;3.22;2.10;;;19.60;99.90;;;;;;5015066;28;20021;-67
2021/10/09 08:05:18;;;;;;;9.90;1.98;;;19.60;99.90;;;;;;5010960;28;20363;-68
2021/10/09 08:07:44;;;;;;;3.92;2.20;;;19.70;99.90;;;;;;5003387;28;20031;-71
2021/10/09 08:10:10;;;;;;;3.67;2.20;;;19.60;99.90;;;;;;5014975;28;20528;-71
2021/10/09 08:12:36;;;;;;;3.85;1.90;;;19.70;99.90;;;;;;5014586;28;20374;-71
2021/10/09 08:15:03;;;;;;;2.40;1.85;;;19.60;99.90;;;;;;5014471;28;20044;-67
2021/10/09 08:17:29;;;;;;;1.88;1.67;;;19.60;99.90;;;;;;5010742;28;20029;-73
2021/10/09 08:19:55;;;;;;;3.67;2.25;;;19.60;99.90;;;;;;5014526;28;20033;-70
2021/10/09 08:22:23;;;;;;;5.20;2.30;;;19.60;99.90;;;;;;4997521;28;20459;-70
2021/10/09 08:27:37;;;;;;;3.08;2.28;;;19.70;99.90;;;;;;5009492;28;20459;-69
2021/10/09 08:35:39;;;;;;;;;;;19.60;99.90;;;;;;5004489;28;20081;-70
2021/10/09 08:40:49;;;;;;;10.07;7.60;;;19.50;99.90;;;;;;5004805;28;20117;-70
2021/10/09 08:43:15;;;;;;;9.63;8.63;;;19.50;99.90;;;;;;4999674;28;20102;-70
2021/10/09 08:45:40;;;;;;;10.13;8.63;;;19.40;99.90;;;;;;5009668;28;20414;-69
2021/10/09 08:48:06;;;;;;;11.25;9.93;;;19.40;99.90;;;;;;5011692;28;20029;-69
2021/10/09 08:50:32;;;;;;;10.73;9.63;;;19.40;99.90;;;;;;5005456;28;20068;-70
2021/10/09 08:53:08;;;;;;;11.82;10.63;;;19.40;99.90;;;;;;4999152;28;20430;-68
2021/10/09 08:55:38;;;;;;;13.80;11.48;;;19.30;99.90;;;;;;5008093;28;20038;-71
2021/10/09 08:58:08;;;;;;;16.38;12.52;;;19.30;99.90;;;;;;5014056;28;20445;-69
2021/10/09 09:00:53;;;;;;;18.05;14.40;;;19.30;99.90;;;;;;5012461;28;20030;-68
2021/10/09 09:03:26;;;;;;;18.90;14.75;;;19.20;99.90;;;;;;5005509;28;20030;-67
2021/10/09 09:06:12;;;;;;;21.17;15.20;;;19.20;99.90;;;;;;5009706;28;20370;-69
2021/10/09 09:26:03;;;;;;;23.23;15.55;;;19.30;99.90;;;;;;5004529;28;20041;-68
2021/10/09 09:41:50;;;;;;;24.02;18.30;;;19.20;99.90;;;;;;5012518;28;20091;-73
2021/10/09 09:44:19;;;;;;;23.75;17.10;;;19.20;99.90;;;;;;5005442;28;20151;-73
2021/10/09 09:47:03;;;;;;;24.42;16.60;;;19.30;99.90;;;;;;5002170;28;20022;-71
2021/10/09 09:49:29;;;;;;;22.42;17.00;;;19.40;99.90;;;;;;4995144;28;20034;-72
2021/10/09 09:51:56;;;;;;;22.52;15.88;;;19.40;99.90;;;;;;5012223;28;20040;-75
2021/10/09 09:54:26;;;;;;;23.38;15.02;;;19.40;99.90;;;;;;5012606;28;20034;-74
2021/10/09 09:57:03;;;;;;;23.02;15.30;;;19.40;99.90;;;;;;5012581;28;20026;-72
2021/10/09 09:59:31;;;;;;;23.20;15.20;;;19.50;99.90;;;;;;5007405;28;20160;-73
2021/10/09 10:02:04;;;;;;;19.88;13.88;;;19.50;99.90;;;;;;4993248;28;20029;-66
2021/10/09 10:04:31;;;;;;;20.42;14.60;;;19.50;99.90;;;;;;5008539;28;20492;-70
2021/10/09 10:07:02;;;;;;;18.67;14.25;;;19.50;99.90;;;;;;4992765;28;20089;-70
2021/10/09 10:09:29;;;;;;;23.25;14.27;;;19.50;99.90;;;;;;4992676;28;20022;-73
2021/10/09 10:12:02;;;;;;;22.02;14.30;;;19.50;99.90;;;;;;5002661;28;20033;-70
2021/10/09 10:14:30;;;;;;;20.73;13.98;;;19.50;99.90;;;;;;5011677;28;20149;-69
2021/10/09 10:16:57;;;;;;;18.45;13.35;;;19.60;99.90;;;;;;5001697;28;20137;-76
2021/10/09 10:19:50;;;;;;;22.13;13.73;;;19.60;99.90;;;;;;5012146;28;20029;-71
2021/10/09 10:22:31;;;;;;;18.95;13.63;;;19.60;99.90;;;;;;4992971;28;20026;-72
2021/10/09 10:24:57;;;;;;;17.40;13.60;;;19.50;99.90;;;;;;5006735;28;20052;-71
2021/10/09 10:27:31;;;;;;;18.75;13.20;;;19.50;99.90;;;;;;5011971;28;20034;-71
2021/10/09 10:30:14;;;;;;;;;;;19.50;99.90;;;;;;4989493;28;20052;-72
2021/10/09 10:32:55;;;;;;;18.77;12.05;;;19.60;99.90;;;;;;5011826;28;20040;-73
2021/10/09 10:35:29;;;;;;;17.60;12.75;;;19.60;99.90;;;;;;5004153;28;20097;-71
2021/10/09 10:38:13;;;;;;;16.05;12.10;;;19.60;99.90;;;;;;5008772;28;20032;-71
2021/10/09 10:40:49;;;;;;;16.40;12.32;;;19.70;99.90;;;;;;5010913;28;20060;-68
2021/10/09 10:43:56;;;;;;;18.27;12.38;;;19.60;99.90;;;;;;5012098;28;20041;-71
2021/10/09 10:49:01;;;;;;;15.82;12.13;;;19.70;99.90;;;;;;5010424;28;20040;-69
2021/10/09 10:57:08;;;;;;;17.30;12.65;;;19.70;99.90;;;;;;5011787;28;20033;-71
2021/10/09 10:59:35;;;;;;;17.60;12.55;;;19.70;99.90;;;;;;5007633;28;20046;-69
2021/10/09 11:02:12;;;;;;;18.33;12.40;;;19.80;99.90;;;;;;5011474;28;20033;-73
2021/10/09 11:04:40;;;;;;;15.43;12.07;;;19.80;99.90;;;;;;5011251;28;20045;-76
2021/10/09 11:07:06;;;;;;;13.82;10.88;;;19.80;99.90;;;;;;5011469;28;20029;-76
2021/10/09 11:09:33;;;;;;;13.77;11.75;;;19.70;99.90;;;;;;5011435;28;20409;-77
2021/10/09 11:11:59;;;;;;;15.63;11.65;;;19.80;99.90;;;;;;5011630;28;20037;-69
2021/10/09 11:14:26;;;;;;;14.25;12.15;;;19.80;99.90;;;;;;5011191;28;20042;-73
2021/10/09 11:17:02;;;;;;;16.02;11.68;;;19.80;99.90;;;;;;5011467;28;20030;-75
2021/10/09 11:19:47;;;;;;;16.15;11.82;;;19.80;99.90;;;;;;5011460;28;20123;-74
2021/10/09 11:22:16;;;;;;;16.48;11.73;;;19.80;99.90;;;;;;5011480;28;20466;-71
2021/10/09 11:24:50;;;;;;;13.73;11.23;;;19.80;99.90;;;;;;5011220;28;20538;-71
2021/10/09 11:27:17;;;;;;;14.32;11.10;;;19.80;99.90;;;;;;4994059;28;20022;-74
2021/10/09 11:30:04;;;;;;;13.07;11.02;;;19.90;99.90;;;;;;5011170;28;20044;-75
2021/10/09 11:32:35;;;;;;;12.63;10.70;;;19.90;99.90;;;;;;5011235;28;20018;-74
2021/10/09 11:35:01;;;;;;;16.10;10.82;;;19.90;99.90;;;;;;5011412;28;20451;-71
2021/10/09 11:37:27;;;;;;;14.27;11.30;;;19.90;99.90;;;;;;5011248;28;20026;-73
2021/10/09 11:39:58;;;;;;;13.10;10.18;;;19.90;99.90;;;;;;5011244;28;20416;-71
2021/10/09 11:42:29;;;;;;;13.13;10.20;;;19.90;99.90;;;;;;5011037;28;20112;-73
2021/10/09 11:56:20;;;;;;;11.45;9.40;;;20.00;99.90;;;;;;5011020;28;20179;-76
2021/10/09 11:58:52;;;;;;;12.27;10.00;;;20.00;99.90;;;;;;5011479;28;20030;-72
2021/10/09 12:01:38;;;;;;;14.82;10.32;;;20.00;99.90;;;;;;5011429;28;20493;-74
2021/10/09 12:04:19;;;;;;;13.40;9.95;;;20.00;99.90;;;;;;5011289;28;20486;-74
2021/10/09 12:06:49;;;;;;;11.98;9.13;;;20.00;99.90;;;;;;5013937;28;20037;-76
2021/10/09 12:09:30;;;;;;;12.45;9.15;;;20.00;99.90;;;;;;5015027;28;20030;-72
2021/10/09 12:12:12;;;;;;;11.38;9.50;;;20.10;99.90;;;;;;5014801;28;20032;-68
2021/10/09 12:14:38;;;;;;;11.15;9.05;;;20.10;99.90;;;;;;5014533;28;20391;-72
2021/10/09 12:17:04;;;;;;;10.57;8.65;;;20.10;99.90;;;;;;5015093;28;20033;-71
2021/10/09 12:19:30;;;;;;;11.63;9.65;;;20.10;99.90;;;;;;5014316;28;20037;-73
2021/10/09 12:22:02;;;;;;;11.25;9.02;;;20.20;99.90;;;;;;5014527;28;20034;-70
2021/10/09 12:24:30;;;;;;;10.27;8.95;;;20.20;99.90;;;;;;5014105;28;20080;-75
2021/10/09 12:27:17;;;;;;;11.25;8.95;;;20.20;99.90;;;;;;5014603;28;20033;-71
2021/10/09 12:30:04;;;;;;;12.70;8.80;;;20.20;99.90;;;;;;5014349;28;20060;-69
2021/10/09 12:32:37;;;;;;;11.70;8.77;;;20.20;99.90;;;;;;5014272;28;20030;-72
2021/10/09 12:35:03;;;;;;;10.48;8.60;;;20.20;99.90;;;;;;5014304;28;20026;-71
2021/10/09 12:37:29;;;;;;;11.48;8.85;;;20.30;99.90;;;;;;5013997;28;20021;-68
2021/10/09 12:40:15;;;;;;;9.52;8.20;;;20.30;99.90;;;;;;5014207;28;20067;-71
2021/10/09 12:42:57;;;;;;;9.60;8.60;;;20.30;99.90;;;;;;5013828;28;20026;-73
2021/10/09 12:45:25;;;;;;;10.88;8.68;;;20.30;99.90;;;;;;5013949;28;20022;-73
2021/10/09 12:47:51;;;;;;;9.82;8.23;;;20.30;99.90;;;;;;5013953;28;20029;-69
2021/10/09 12:50:18;;;;;;;10.00;8.35;;;20.30;99.90;;;;;;5014288;28;20076;-73
2021/10/09 12:52:45;;;;;;;11.63;8.85;;;20.40;99.90;;;;;;5014308;28;20022;-72
2021/10/09 12:55:13;;;;;;;9.85;8.63;;;20.40;99.90;;;;;;5013248;28;20065;-72
2021/10/09 12:57:50;;;;;;;10.82;8.10;;;20.40;99.90;;;;;;5013827;28;20042;-70
2021/10/09 13:00:17;;;;;;;11.85;8.50;;;20.50;99.90;;;;;;5014130;28;20030;-72
2021/10/09 13:02:44;;;;;;;9.95;7.50;;;20.50;99.90;;;;;;5013579;28;20057;-70
2021/10/09 13:05:09;;;;;;;11.48;8.30;;;20.50;99.90;;;;;;5013800;28;20039;-74
2021/10/09 13:07:35;;;;;;;10.20;7.57;;;20.50;99.90;;;;;;5013389;28;20038;-71
2021/10/09 13:10:01;;;;;;;14.32;7.35;;;20.50;99.90;;;;;;5013805;28;20437;-73
2021/10/09 13:12:26;;;;;;;10.40;7.80;;;20.60;99.90;;;;;;5013347;28;20037;-75
2021/10/09 13:14:52;;;;;;;13.40;7.78;;;20.60;99.90;;;;;;5013366;28;20061;-75
2021/10/09 13:17:18;;;;;;;9.90;7.22;;;20.60;99.90;;;;;;5012912;28;20447;-71
2021/10/09 13:19:43;;;;;;;11.15;7.78;;;20.60;99.90;;;;;;5013032;28;20029;-72
2021/10/09 13:22:09;;;;;;;8.43;7.00;;;20.60;99.90;;;;;;5009273;28;20506;-70
2021/10/09 13:24:34;;;;;;;12.30;7.85;;;20.70;99.90;;;;;;5007569;28;20548;-74
2021/10/09 13:27:00;;;;;;;13.65;7.35;;;20.70;99.90;;;;;;5003276;28;20061;-71
2021/10/09 13:29:26;;;;;;;11.48;7.95;;;20.70;99.90;;;;;;5008532;28;20477;-72
2021/10/09 13:31:51;;;;;;;11.43;8.73;;;20.70;99.90;;;;;;5001934;28;20040;-75
2021/10/09 13:34:17;;;;;;;16.13;10.10;;;20.70;99.90;;;;;;5004155;28;20026;-74
2021/10/09 13:36:44;;;;;;;15.38;11.13;;;20.70;99.90;;;;;;5002725;28;20026;-76
2021/10/09 13:39:10;;;;;;;16.15;11.82;;;20.80;99.90;;;;;;5000776;28;20486;-73
2021/10/09 13:41:36;;;;;;;16.42;12.00;;;20.80;99.90;;;;;;5012347;28;20029;-76
2021/10/09 13:44:02;;;;;;;15.63;11.43;;;20.80;99.90;;;;;;5012870;28;20064;-69
2021/10/09 13:46:28;;;;;;;16.45;12.45;;;20.80;99.90;;;;;;5012269;28;20093;-75
2021/10/09 13:48:54;;;;;;;16.83;12.63;;;20.90;99.90;;;;;;5012459;28;20030;-73
2021/10/09 13:51:20;;;;;;;14.57;12.07;;;20.90;99.90;;;;;;5011949;28;20038;-74
2021/10/09 13:53:46;;;;;;;16.55;12.52;;;20.90;99.90;;;;;;5012659;28;20030;-74
2021/10/09 13:56:12;;;;;;;17.80;12.77;;;20.90;99.90;;;;;;5012284;28;20083;-75
2021/10/09 13:58:38;;;;;;;19.70;13.32;;;20.90;99.90;;;;;;5012272;28;20022;-73
2021/10/09 14:01:04;;;;;;;16.90;13.07;;;21.00;99.90;;;;;;5012271;28;20600;-73
2021/10/09 14:03:32;;;;;;;17.33;12.95;;;21.00;99.90;;;;;;5012122;28;20044;-78
2021/10/09 14:05:58;;;;;;;17.13;13.25;;;21.00;99.90;;;;;;5012162;28;20033;-74
2021/10/09 14:08:25;;;;;;;19.40;12.10;;;21.10;99.90;;;;;;4994347;28;20544;-75
2021/10/09 14:10:52;;;;;;;16.27;12.48;;;21.10;99.90;;;;;;5012226;28;20486;-70
2021/10/09 14:13:18;;;;;;;16.40;13.10;;;21.10;99.90;;;;;;5012020;28;20025;-74
2021/10/09 14:15:43;;;;;;;15.95;11.90;;;21.10;99.90;;;;;;5010157;28;20038;-74
2021/10/09 14:18:10;;;;;;;16.92;12.38;;;21.10;99.90;;;;;;5002266;28;20049;-75
2021/10/09 14:20:36;;;;;;;17.23;11.82;;;21.20;99.90;;;;;;5011752;28;20041;-73
2021/10/09 14:23:03;;;;;;;16.05;12.38;;;21.20;99.90;;;;;;5011983;28;20356;-74
2021/10/09 14:25:32;;;;;;;17.70;12.60;;;21.20;99.90;;;;;;5011695;28;20052;-71
2021/10/09 14:28:00;;;;;;;15.68;11.77;;;21.20;99.90;;;;;;5011812;28;20018;-73
2021/10/09 14:30:25;;;;;;;16.02;11.68;;;21.20;99.90;;;;;;5009551;28;20033;-74
2021/10/09 14:32:51;;;;;;;15.77;12.02;;;21.20;99.90;;;;;;5011599;28;20025;-74
2021/10/09 14:35:16;;;;;;;15.18;11.82;;;21.30;99.90;;;;;;5011835;28;20041;-72
2021/10/09 14:37:43;;;;;;;14.43;11.63;;;21.30;99.90;;;;;;5011497;28;20034;-70
2021/10/09 14:40:09;;;;;;;14.88;11.60;;;21.30;99.90;;;;;;5007561;28;20034;-72
2021/10/09 14:42:35;;;;;;;14.13;11.43;;;21.30;99.90;;;;;;5011183;28;20135;-75
2021/10/09 14:45:01;;;;;;;14.23;11.60;;;21.30;99.90;;;;;;4999386;28;20056;-72
2021/10/09 15:19:38;;;;;;;12.98;10.02;;;21.50;99.90;;;;;;4996550;28;20026;-71
2021/10/09 15:22:06;;;;;;;13.32;10.23;;;21.50;99.90;;;;;;5011217;28;20036;-73
2021/10/09 15:24:31;;;;;;;14.63;10.38;;;21.50;99.90;;;;;;5010892;28;20363;-72
2021/10/09 15:26:57;;;;;;;12.48;10.13;;;21.60;99.90;;;;;;5009334;28;20061;-74
2021/10/09 15:29:23;;;;;;;10.90;9.45;;;21.60;99.90;;;;;;5010502;28;20041;-73
2021/10/09 15:31:48;;;;;;;11.50;9.43;;;21.60;99.90;;;;;;5011274;28;20076;-70
2021/10/09 15:34:15;;;;;;;14.15;10.20;;;21.60;99.90;;;;;;5010663;28;20044;-73
2021/10/09 15:36:41;;;;;;;11.73;9.68;;;21.60;99.90;;;;;;5010569;28;20026;-74
2021/10/09 15:39:06;;;;;;;13.18;9.60;;;21.60;99.90;;;;;;4993372;28;20032;-72